createdAt,value
2019-03-28T00:01:21.242Z,9.90
2019-03-28T00:03:54.112Z,9.89
2019-03-28T00:06:26.681Z,9.87
2019-03-28T00:08:59.123Z,9.85
2019-03-28T00:11:31.553Z,9.85
2019-03-28T00:14:03.929Z,9.84
2019-03-28T00:16:36.429Z,9.81
2019-03-28T00:19:09.193Z,9.79
2019-03-28T00:21:41.660Z,9.75
2019-03-28T00:24:39.211Z,9.69
2019-03-28T00:27:11.626Z,9.65
2019-03-28T00:29:45.429Z,9.61
2019-03-28T00:32:17.875Z,9.59
2019-03-28T00:34:50.593Z,9.59
2019-03-28T00:37:23.091Z,9.59
2019-03-28T00:39:55.542Z,9.59
2019-03-28T00:42:27.948Z,9.58
2019-03-28T00:45:00.389Z,9.57
2019-03-28T00:47:32.792Z,9.54
2019-03-28T00:50:05.763Z,9.52
2019-03-28T00:52:38.259Z,9.47
2019-03-28T00:55:11.426Z,9.43
2019-03-28T00:57:44.175Z,9.44
2019-03-28T01:00:19.011Z,9.44
2019-03-28T01:02:51.457Z,9.42
2019-03-28T01:05:24.216Z,9.32
2019-03-28T01:07:56.964Z,9.23
2019-03-28T01:10:29.573Z,9.14
2019-03-28T01:13:02.140Z,8.99
2019-03-28T01:15:34.875Z,8.90
2019-03-28T01:18:07.372Z,8.80
2019-03-28T01:20:40.103Z,8.65
2019-03-28T01:23:12.489Z,8.52
2019-03-28T01:25:44.876Z,8.49
2019-03-28T01:28:17.198Z,8.43
2019-03-28T01:30:49.620Z,8.37
2019-03-28T01:33:21.987Z,8.26
2019-03-28T01:35:55.167Z,8.17
2019-03-28T01:38:27.551Z,8.10
2019-03-28T01:41:00.931Z,8.06
2019-03-28T01:43:33.348Z,8.03
2019-03-28T01:46:05.792Z,8.01
2019-03-28T01:48:38.176Z,8.04
2019-03-28T01:51:10.956Z,8.07
2019-03-28T01:53:43.455Z,8.06
2019-03-28T01:56:16.320Z,8.04
2019-03-28T01:58:48.927Z,8.06
2019-03-28T02:01:21.280Z,8.06
2019-03-28T02:03:55.196Z,8.03
2019-03-28T02:06:27.883Z,7.98
2019-03-28T02:09:00.231Z,7.95
2019-03-28T02:11:32.664Z,7.89
2019-03-28T02:14:05.155Z,7.87
2019-03-28T02:16:37.617Z,7.80
2019-03-28T02:19:10.101Z,7.77
2019-03-28T02:21:43.135Z,7.73
2019-03-28T02:24:15.568Z,7.74
2019-03-28T02:26:48.265Z,7.72
2019-03-28T02:29:21.487Z,7.66
2019-03-28T02:31:54.122Z,7.61
2019-03-28T02:34:26.927Z,7.57
2019-03-28T02:36:59.712Z,7.53
2019-03-28T02:39:32.095Z,7.47
2019-03-28T02:42:04.584Z,7.49
2019-03-28T02:44:37.624Z,7.48
2019-03-28T02:47:10.436Z,7.44
2019-03-28T02:49:42.811Z,7.38
2019-03-28T02:52:15.525Z,7.38
2019-03-28T02:54:48.463Z,7.39
2019-03-28T02:57:20.832Z,7.34
2019-03-28T02:59:53.237Z,7.27
2019-03-28T03:02:25.895Z,7.24
2019-03-28T03:04:58.526Z,7.19
2019-03-28T03:07:30.944Z,7.15
2019-03-28T03:10:03.815Z,7.16
2019-03-28T03:12:36.187Z,7.20
2019-03-28T03:15:10.042Z,7.26
2019-03-28T03:17:42.439Z,7.31
2019-03-28T03:20:15.740Z,7.32
2019-03-28T03:22:48.424Z,7.33
2019-03-28T03:25:21.210Z,7.31
2019-03-28T03:27:58.672Z,7.24
2019-03-28T03:30:27.847Z,7.13
2019-03-28T03:33:00.272Z,7.06
2019-03-28T03:35:32.772Z,7.01
2019-03-28T03:38:05.167Z,6.94
2019-03-28T03:40:37.987Z,6.88
2019-03-28T03:43:10.433Z,6.81
2019-03-28T03:45:43.004Z,6.76
2019-03-28T03:48:16.665Z,6.73
2019-03-28T03:50:49.060Z,6.71
2019-03-28T03:53:21.527Z,6.66
2019-03-28T03:55:54.645Z,6.59
2019-03-28T03:58:27.121Z,6.54
2019-03-28T04:00:59.546Z,6.55
2019-03-28T04:03:32.145Z,6.60
2019-03-28T04:06:04.594Z,6.65
2019-03-28T04:08:37.151Z,6.70
2019-03-28T04:11:09.925Z,6.77
2019-03-28T04:13:42.609Z,6.84
2019-03-28T04:16:15.060Z,6.92
2019-03-28T04:18:47.463Z,6.88
2019-03-28T04:21:19.953Z,6.77
2019-03-28T04:23:52.317Z,6.62
2019-03-28T04:26:27.651Z,6.54
2019-03-28T04:29:00.072Z,6.44
2019-03-28T04:31:32.482Z,6.39
2019-03-28T04:34:07.811Z,6.37
2019-03-28T04:36:38.993Z,6.35
2019-03-28T04:39:11.403Z,6.35
2019-03-28T04:41:44.318Z,6.37
2019-03-28T04:44:16.736Z,6.43
2019-03-28T04:46:49.229Z,6.45
2019-03-28T04:49:21.665Z,6.45
2019-03-28T04:51:55.211Z,6.47
2019-03-28T04:54:27.616Z,6.49
2019-03-28T04:57:00.714Z,6.51
2019-03-28T04:59:33.221Z,6.53
2019-03-28T05:02:05.621Z,6.55
2019-03-28T05:04:38.070Z,6.54
2019-03-28T05:07:10.804Z,6.50
2019-03-28T05:09:43.218Z,6.46
2019-03-28T05:12:16.090Z,6.46
2019-03-28T05:14:48.741Z,6.47
2019-03-28T05:17:21.187Z,6.49
2019-03-28T05:19:53.724Z,6.52
2019-03-28T05:22:26.245Z,6.54
2019-03-28T05:24:59.090Z,6.50
2019-03-28T05:27:33.460Z,6.43
2019-03-28T05:30:08.292Z,6.35
2019-03-28T05:32:40.738Z,6.33
2019-03-28T05:35:13.426Z,6.35
2019-03-28T05:37:45.936Z,6.38
2019-03-28T05:40:18.492Z,6.33
2019-03-28T05:42:51.320Z,6.34
2019-03-28T05:45:23.843Z,6.30
2019-03-28T05:48:00.171Z,6.27
2019-03-28T05:50:31.678Z,6.20
2019-03-28T05:53:04.170Z,6.19
2019-03-28T05:55:37.061Z,6.18
2019-03-28T05:58:10.073Z,6.15
2019-03-28T06:00:42.579Z,6.12
2019-03-28T06:03:15.064Z,6.08
2019-03-28T06:05:47.539Z,6.09
2019-03-28T06:08:20.007Z,6.13
2019-03-28T06:10:52.550Z,6.14
2019-03-28T06:13:25.693Z,6.08
2019-03-28T06:15:58.510Z,6.10
2019-03-28T06:18:31.017Z,6.09
2019-03-28T06:21:03.459Z,6.08
2019-03-28T06:23:36.093Z,6.12
2019-03-28T06:26:08.882Z,6.18
2019-03-28T06:28:46.424Z,6.27
2019-03-28T06:31:18.949Z,6.37
2019-03-28T06:33:51.370Z,6.51
2019-03-28T06:36:26.608Z,6.67
2019-03-28T06:38:59.194Z,6.87
2019-03-28T06:41:31.650Z,7.07
2019-03-28T06:44:04.108Z,7.20
2019-03-28T06:46:37.031Z,7.35
2019-03-28T06:49:09.444Z,7.48
2019-03-28T06:51:41.888Z,7.59
2019-03-28T06:54:14.388Z,7.69
2019-03-28T06:56:47.215Z,7.77
2019-03-28T06:59:19.737Z,7.89
2019-03-28T07:01:52.858Z,7.97
2019-03-28T07:04:25.322Z,8.04
2019-03-28T07:06:57.905Z,8.12
2019-03-28T07:09:30.403Z,8.18
2019-03-28T07:12:02.967Z,8.24
2019-03-28T07:14:35.412Z,8.30
2019-03-28T07:17:08.249Z,8.38
2019-03-28T07:19:40.832Z,8.44
2019-03-28T07:22:13.381Z,8.53
2019-03-28T07:24:45.845Z,8.60
2019-03-28T07:27:18.367Z,8.67
2019-03-28T07:29:51.552Z,8.73
2019-03-28T07:32:24.533Z,8.76
2019-03-28T07:34:57.009Z,8.81
2019-03-28T07:37:29.511Z,8.86
2019-03-28T07:40:02.009Z,8.93
2019-03-28T07:42:34.497Z,9.04
2019-03-28T07:45:08.226Z,9.11
2019-03-28T07:47:41.298Z,9.19
2019-03-28T07:50:15.407Z,9.23
2019-03-28T07:52:48.187Z,9.30
2019-03-28T07:55:20.915Z,9.38
2019-03-28T07:57:53.455Z,9.44
2019-03-28T08:00:25.916Z,9.53
2019-03-28T08:02:59.031Z,9.65
2019-03-28T08:05:31.486Z,9.74
2019-03-28T08:08:03.919Z,9.83
2019-03-28T08:10:36.451Z,9.95
2019-03-28T08:13:08.892Z,10.06
2019-03-28T08:15:41.328Z,10.18
2019-03-28T08:18:14.377Z,10.31
2019-03-28T08:20:47.366Z,10.43
2019-03-28T08:23:19.846Z,10.52
2019-03-28T08:25:52.291Z,10.62
2019-03-28T08:28:24.750Z,10.73
2019-03-28T08:30:57.389Z,10.82
2019-03-28T08:33:30.368Z,10.90
2019-03-28T08:36:05.156Z,10.98
2019-03-28T08:38:40.870Z,11.06
2019-03-28T08:41:13.343Z,11.13
2019-03-28T08:43:45.994Z,11.19
2019-03-28T08:46:18.421Z,11.26
2019-03-28T08:48:51.534Z,11.37
2019-03-28T08:51:27.254Z,11.45
2019-03-28T08:53:58.451Z,11.53
2019-03-28T08:56:31.162Z,11.61
2019-03-28T08:59:04.652Z,11.69
2019-03-28T09:01:37.144Z,11.78
2019-03-28T09:04:10.209Z,11.89
2019-03-28T09:06:42.623Z,12.01
2019-03-28T09:09:15.067Z,12.14
2019-03-28T09:11:47.509Z,12.26
2019-03-28T09:14:20.051Z,12.37
2019-03-28T09:16:52.457Z,12.47
2019-03-28T09:19:29.961Z,12.56
2019-03-28T09:22:02.499Z,12.64
2019-03-28T09:24:35.419Z,12.74
2019-03-28T09:27:08.411Z,12.83
2019-03-28T09:29:41.046Z,12.91
2019-03-28T09:32:13.592Z,13.00
2019-03-28T09:34:47.088Z,13.08
2019-03-28T09:37:19.558Z,13.15
2019-03-28T09:39:52.033Z,13.23
2019-03-28T09:42:24.484Z,13.33
2019-03-28T09:44:57.087Z,13.43
2019-03-28T09:47:30.312Z,13.56
2019-03-28T09:50:03.318Z,13.68
2019-03-28T09:52:36.069Z,13.77
2019-03-28T09:55:08.575Z,13.84
2019-03-28T09:57:41.303Z,13.92
2019-03-28T10:00:14.963Z,14.01
2019-03-28T10:02:47.480Z,14.09
2019-03-28T10:05:19.968Z,14.14
2019-03-28T10:07:52.631Z,14.20
2019-03-28T10:10:25.071Z,14.23
2019-03-28T10:12:57.527Z,14.30
2019-03-28T10:15:30.030Z,14.35
2019-03-28T10:18:02.501Z,14.43
2019-03-28T10:20:34.905Z,14.52
2019-03-28T10:23:08.222Z,14.63
2019-03-28T10:25:40.804Z,14.75
2019-03-28T10:28:13.191Z,14.86
2019-03-28T10:30:46.875Z,14.96
2019-03-28T10:33:19.325Z,15.05
2019-03-28T10:35:51.788Z,15.12
2019-03-28T10:38:24.412Z,15.22
2019-03-28T10:40:57.079Z,15.28
2019-03-28T10:43:29.852Z,15.35
2019-03-28T10:46:02.365Z,15.40
2019-03-28T10:48:34.920Z,15.43
2019-03-28T10:51:08.393Z,15.48
2019-03-28T10:53:41.273Z,15.54
2019-03-28T10:56:21.640Z,15.56
2019-03-28T10:58:48.213Z,15.60
2019-03-28T11:01:36.063Z,15.63
2019-03-28T11:03:54.893Z,15.65
2019-03-28T11:06:27.428Z,15.67
2019-03-28T11:09:00.737Z,15.69
2019-03-28T11:11:33.301Z,15.72
2019-03-28T11:14:05.774Z,15.79
2019-03-28T11:16:38.200Z,15.82
2019-03-28T11:19:10.693Z,15.86
2019-03-28T11:21:43.183Z,15.92
2019-03-28T11:24:16.099Z,15.94
2019-03-28T11:26:48.539Z,15.98
2019-03-28T11:29:21.062Z,16.02
2019-03-28T11:31:53.888Z,16.06
2019-03-28T11:34:26.454Z,16.09
2019-03-28T11:36:58.935Z,16.17
2019-03-28T11:39:31.695Z,16.24
2019-03-28T11:42:04.167Z,16.29
2019-03-28T11:44:36.703Z,16.35
2019-03-28T11:47:10.410Z,16.39
2019-03-28T11:49:42.871Z,16.44
2019-03-28T11:52:15.399Z,16.48
2019-03-28T11:54:48.379Z,16.50
2019-03-28T11:57:21.150Z,16.56
2019-03-28T11:59:53.736Z,16.61
2019-03-28T12:02:26.186Z,16.67
2019-03-28T12:04:58.800Z,16.74
2019-03-28T12:07:31.246Z,16.80
2019-03-28T12:10:04.764Z,16.86
2019-03-28T12:12:37.341Z,16.90
2019-03-28T12:15:10.872Z,16.96
2019-03-28T12:17:43.315Z,17.00
2019-03-28T12:20:16.238Z,17.02
2019-03-28T12:22:48.852Z,17.04
2019-03-28T12:25:21.867Z,17.06
2019-03-28T12:27:54.301Z,17.09
2019-03-28T12:30:26.894Z,17.12
2019-03-28T12:32:59.456Z,17.16
2019-03-28T12:35:32.176Z,17.21
2019-03-28T12:38:05.053Z,17.24
2019-03-28T12:40:38.074Z,17.29
2019-03-28T12:43:10.589Z,17.34
2019-03-28T12:45:43.108Z,17.40
2019-03-28T12:48:15.674Z,17.47
2019-03-28T12:50:58.298Z,17.53
2019-03-28T12:53:22.610Z,17.63
2019-03-28T12:55:56.275Z,17.71
2019-03-28T12:58:28.711Z,17.84
2019-03-28T13:01:01.351Z,17.95
2019-03-28T13:03:44.858Z,18.09
2019-03-28T13:06:07.969Z,18.23
2019-03-28T13:08:40.392Z,18.34
2019-03-28T13:16:20.632Z,18.67
2019-03-28T13:18:53.170Z,18.76
2019-03-28T13:21:25.867Z,18.82
2019-03-28T13:23:58.409Z,18.89
2019-03-28T13:26:30.871Z,18.93
2019-03-28T13:29:03.680Z,18.94
2019-03-28T13:31:36.117Z,18.94
2019-03-28T13:34:08.628Z,18.93
2019-03-28T13:36:41.146Z,18.97
2019-03-28T13:39:14.755Z,19.04
2019-03-28T13:41:47.230Z,19.11
2019-03-28T13:44:20.159Z,19.20
2019-03-28T13:46:52.624Z,19.27
2019-03-28T13:49:25.075Z,19.34
2019-03-28T13:51:57.689Z,19.42
2019-03-28T13:54:30.579Z,19.49
2019-03-28T13:57:03.454Z,19.51
2019-03-28T13:59:36.343Z,19.53
2019-03-28T14:02:08.922Z,19.57
2019-03-28T14:04:41.435Z,19.57
2019-03-28T14:07:17.088Z,19.56
2019-03-28T14:09:48.262Z,19.53
2019-03-28T14:12:23.283Z,19.54
2019-03-28T14:14:55.349Z,19.54
2019-03-28T14:17:27.754Z,19.53
2019-03-28T14:20:00.379Z,19.49
2019-03-28T14:22:32.835Z,19.43
2019-03-28T14:25:05.738Z,19.39
2019-03-28T14:27:38.651Z,19.35
2019-03-28T14:30:13.279Z,19.35
2019-03-28T14:32:53.052Z,19.36
2019-03-28T14:35:20.113Z,19.37
2019-03-28T14:37:52.866Z,19.36
2019-03-28T14:40:25.375Z,19.37
2019-03-28T14:42:58.230Z,19.42
2019-03-28T14:45:31.161Z,19.45
2019-03-28T14:48:06.697Z,19.47
2019-03-28T14:50:42.532Z,19.48
2019-03-28T14:53:14.979Z,19.45
2019-03-28T14:55:47.527Z,19.45
2019-03-28T14:58:22.096Z,19.47
2019-03-28T15:00:55.484Z,19.48
2019-03-28T15:03:27.971Z,19.44
2019-03-28T15:06:00.915Z,19.38
2019-03-28T15:08:33.361Z,19.34
2019-03-28T15:11:06.081Z,19.29
2019-03-28T15:13:40.527Z,19.25
2019-03-28T15:16:12.792Z,19.21
2019-03-28T15:18:45.492Z,19.17
2019-03-28T15:21:19.434Z,19.15
2019-03-28T15:23:51.849Z,19.12
2019-03-28T15:26:24.399Z,19.05
2019-03-28T15:28:57.028Z,19.03
2019-03-28T15:31:29.743Z,19.03
2019-03-28T15:34:02.318Z,19.02
2019-03-28T15:36:35.389Z,19.02
2019-03-28T15:39:09.854Z,19.02
2019-03-28T15:41:42.320Z,19.03
2019-03-28T15:44:14.960Z,19.05
2019-03-28T15:46:47.564Z,19.05
2019-03-28T15:49:20.113Z,19.06
2019-03-28T15:51:53.209Z,19.07
2019-03-28T15:54:25.668Z,19.08
2019-03-28T15:56:58.857Z,19.10
2019-03-28T15:59:31.305Z,19.12
2019-03-28T16:02:03.765Z,19.10
2019-03-28T16:04:36.277Z,19.07
2019-03-28T16:07:09.378Z,19.05
2019-03-28T16:09:41.926Z,19.02
2019-03-28T16:12:14.456Z,18.99
2019-03-28T16:14:46.978Z,18.97
2019-03-28T16:17:21.629Z,18.94
2019-03-28T16:19:54.459Z,18.92
2019-03-28T16:22:27.629Z,18.90
2019-03-28T16:25:00.341Z,18.88
2019-03-28T16:27:32.785Z,18.85
2019-03-28T16:30:06.465Z,18.82
2019-03-28T16:32:38.982Z,18.81
2019-03-28T16:35:11.713Z,18.79
2019-03-28T16:37:44.244Z,18.75
2019-03-28T16:40:17.552Z,18.71
2019-03-28T16:42:50.045Z,18.67
2019-03-28T16:45:22.788Z,18.63
2019-03-28T16:47:55.234Z,18.62
2019-03-28T16:50:27.835Z,18.58
2019-03-28T16:53:00.329Z,18.55
2019-03-28T16:55:33.502Z,18.49
2019-03-28T16:58:06.380Z,18.47
2019-03-28T17:00:40.290Z,18.44
2019-03-28T17:03:12.861Z,18.40
2019-03-28T17:05:47.130Z,18.37
2019-03-28T17:08:20.303Z,18.35
2019-03-28T17:10:57.637Z,18.33
2019-03-28T17:13:30.264Z,18.30
2019-03-28T17:16:02.994Z,18.27
2019-03-28T17:18:35.713Z,18.24
2019-03-28T17:21:08.237Z,18.20
2019-03-28T17:23:40.733Z,18.18
2019-03-28T17:26:13.826Z,18.13
2019-03-28T17:28:46.622Z,18.08
2019-03-28T17:31:19.326Z,18.02
2019-03-28T17:33:51.827Z,17.96
2019-03-28T17:36:26.698Z,17.89
2019-03-28T17:38:58.695Z,17.83
2019-03-28T17:41:32.057Z,17.75
2019-03-28T17:44:05.782Z,17.70
2019-03-28T17:46:38.611Z,17.65
2019-03-28T17:49:11.116Z,17.59
2019-03-28T17:51:43.699Z,17.53
2019-03-28T17:54:16.332Z,17.46
2019-03-28T17:56:49.838Z,17.40
2019-03-28T17:59:22.352Z,17.35
2019-03-28T18:01:54.957Z,17.28
2019-03-28T18:04:28.790Z,17.21
2019-03-28T18:07:01.527Z,17.15
2019-03-28T18:09:34.195Z,17.08
2019-03-28T18:12:07.115Z,17.04
2019-03-28T18:14:39.803Z,17.00
2019-03-28T18:17:12.486Z,16.95
2019-03-28T18:19:45.298Z,16.91
2019-03-28T18:22:17.974Z,16.88
2019-03-28T18:24:50.415Z,16.86
2019-03-28T18:27:23.523Z,16.85
2019-03-28T18:29:56.916Z,16.82
2019-03-28T18:32:29.485Z,16.81
2019-03-28T18:35:05.533Z,16.78
2019-03-28T18:37:36.368Z,16.77
2019-03-28T18:40:09.513Z,16.74
2019-03-28T18:42:42.719Z,16.72
2019-03-28T18:45:15.592Z,16.69
2019-03-28T18:47:48.545Z,16.65
2019-03-28T18:50:21.238Z,16.62
2019-03-28T18:52:59.225Z,16.57
2019-03-28T18:55:31.785Z,16.54
2019-03-28T18:58:05.758Z,16.50
2019-03-28T19:00:38.356Z,16.45
2019-03-28T19:03:10.899Z,16.42
2019-03-28T19:05:43.531Z,16.39
2019-03-28T19:08:17.571Z,16.35
2019-03-28T19:10:51.053Z,16.30
2019-03-28T19:13:24.722Z,16.25
2019-03-28T19:15:57.384Z,16.22
2019-03-28T19:18:29.873Z,16.17
2019-03-28T19:21:02.389Z,16.15
2019-03-28T19:23:35.557Z,16.08
2019-03-28T19:26:10.633Z,16.03
2019-03-28T19:28:43.253Z,15.98
2019-03-28T19:31:15.744Z,15.91
2019-03-28T19:33:48.444Z,15.86
2019-03-28T19:36:21.462Z,15.81
2019-03-28T19:38:55.133Z,15.77
2019-03-28T19:41:28.733Z,15.71
2019-03-28T19:44:01.348Z,15.67
2019-03-28T19:46:34.079Z,15.62
2019-03-28T19:49:06.543Z,15.56
2019-03-28T19:51:39.231Z,15.52
2019-03-28T19:54:11.892Z,15.49
2019-03-28T19:56:44.449Z,15.45
2019-03-28T19:59:17.384Z,15.42
2019-03-28T20:01:50.047Z,15.40
2019-03-28T20:04:22.681Z,15.38
2019-03-28T20:06:55.250Z,15.35
2019-03-28T20:09:27.786Z,15.30
2019-03-28T20:12:03.427Z,15.24
2019-03-28T20:14:34.567Z,15.20
2019-03-28T20:17:07.272Z,15.17
2019-03-28T20:19:39.770Z,15.14
2019-03-28T20:22:12.430Z,15.10
2019-03-28T20:24:44.935Z,15.07
2019-03-28T20:27:17.529Z,15.04
2019-03-28T20:29:50.536Z,15.03
2019-03-28T20:32:23.311Z,15.02
2019-03-28T20:34:56.187Z,15.02
2019-03-28T20:37:29.049Z,15.00
2019-03-28T20:40:01.855Z,14.98
2019-03-28T20:42:35.021Z,14.97
2019-03-28T20:45:09.289Z,14.94
2019-03-28T20:47:42.202Z,14.91
2019-03-28T20:50:16.064Z,14.87
2019-03-28T20:52:48.679Z,14.84
2019-03-28T20:55:21.266Z,14.80
2019-03-28T20:57:54.411Z,14.79
2019-03-28T21:00:47.728Z,14.77
2019-03-28T21:03:20.622Z,14.73
2019-03-28T21:05:53.304Z,14.69
2019-03-28T21:08:25.832Z,14.68
2019-03-28T21:10:59.120Z,14.64
2019-03-28T21:13:31.981Z,14.63
2019-03-28T21:16:04.616Z,14.59
2019-03-28T21:18:37.515Z,14.55
2019-03-28T21:21:10.161Z,14.50
2019-03-28T21:23:42.743Z,14.46
2019-03-28T21:26:15.434Z,14.43
2019-03-28T21:28:48.029Z,14.39
2019-03-28T21:31:20.494Z,14.36
2019-03-28T21:33:54.880Z,14.32
2019-03-28T21:36:29.967Z,14.30
2019-03-28T21:39:01.436Z,14.27
2019-03-28T21:41:34.031Z,14.23
2019-03-28T21:44:06.627Z,14.21
2019-03-28T21:46:39.202Z,14.21
2019-03-28T21:49:11.892Z,14.20
2019-03-28T21:51:45.896Z,14.17
2019-03-28T21:54:19.225Z,14.15
2019-03-28T21:56:51.683Z,14.10
2019-03-28T21:59:24.561Z,14.08
2019-03-28T22:01:57.098Z,14.04
2019-03-28T22:04:29.784Z,13.99
2019-03-28T22:07:02.252Z,13.95
2019-03-28T22:09:34.761Z,13.93
2019-03-28T22:12:07.393Z,13.88
2019-03-28T22:14:40.130Z,13.85
2019-03-28T22:17:12.751Z,13.82
2019-03-28T22:19:45.254Z,13.80
2019-03-28T22:22:17.923Z,13.76
2019-03-28T22:24:50.492Z,13.73
2019-03-28T22:27:23.467Z,13.70
2019-03-28T22:29:56.118Z,13.68
2019-03-28T22:32:28.692Z,13.65
2019-03-28T22:35:01.335Z,13.63
2019-03-28T22:37:35.169Z,13.60
2019-03-28T22:40:11.720Z,13.57
2019-03-28T22:42:42.785Z,13.51
2019-03-28T22:45:15.885Z,13.47
2019-03-28T22:47:48.348Z,13.44
2019-03-28T22:50:20.900Z,13.41
2019-03-28T22:52:53.506Z,13.38
2019-03-28T22:55:25.980Z,13.33
2019-03-28T22:57:58.759Z,13.25
2019-03-28T23:00:49.191Z,13.13
2019-03-28T23:03:21.675Z,13.04
2019-03-28T23:05:54.123Z,12.98
2019-03-28T23:08:26.677Z,12.98
2019-03-28T23:10:59.265Z,12.97
2019-03-28T23:13:31.775Z,12.95
2019-03-28T23:16:04.187Z,12.93
2019-03-28T23:18:36.732Z,12.92
2019-03-28T23:21:09.300Z,12.90
2019-03-28T23:23:41.746Z,12.88
2019-03-28T23:26:14.206Z,12.87
2019-03-28T23:28:46.887Z,12.86
2019-03-28T23:31:19.324Z,12.84
2019-03-28T23:33:53.661Z,12.82
2019-03-28T23:36:26.089Z,12.80
2019-03-28T23:38:58.556Z,12.76
2019-03-28T23:41:30.905Z,12.70
2019-03-28T23:44:03.322Z,12.67
2019-03-28T23:46:35.817Z,12.63
2019-03-28T23:49:08.431Z,12.60
2019-03-28T23:51:40.897Z,12.57
2019-03-28T23:54:13.379Z,12.53
2019-03-28T23:56:45.804Z,12.50
2019-03-28T23:59:18.755Z,12.49
